• Join FlightAware (Why Join?)
  • Login
  • US Flag 
12:14PM EST


 

Airport Tracker/Info


-or-


 

Live Flight TrackerFlight Track Log ✈ UAL4588 ✈ 07-Jul-2013 ✈ KIAH - KGJT

Flight Track Log - Related Links

Times and Time Zones

All times are in EDT time to prevent confusion due to time zone crossing. See the UAL4588 flight status page for this flight to view local times or setup timezone preferences in your user account.

Time Position Orientation Groundspeed Altitude Reporting Facility
EDT Latitude Longitude Course Direction KTS MPH feet Rate Location/Type
09:56AM 30.0364 -95.2964 North 260 299 2,100  Level Houston Center
09:57AM 30.1072 -95.3347 335° Northwest 276 318 4,400 2,580 Climbing Houston Center
09:58AM 30.1733 -95.3839 327° Northwest 284 327 7,500 2,700 Climbing Houston Center
09:59AM 30.2397 -95.4328 328° Northwest 283 326 10,000 1,500 Climbing Houston Center
10:00AM 30.3172 -95.4906 327° Northwest 320 368 10,600 900 Climbing Houston Center
10:01AM 30.4047 -95.5572 327° Northwest 366 421 11,900 1,320 Climbing Houston Center
10:02AM 30.4956 -95.6214 329° Northwest 382 440 13,400 1,680 Climbing Houston Center
10:03AM 30.6103 -95.6933 332° Northwest 390 449 15,400 1,620 Climbing Houston Center
10:04AM 30.7103 -95.7456 336° Northwest 390 449 16,800 1,260 Climbing Houston Center
10:05AM 30.8128 -95.7994 336° Northwest 390 449 18,000 1,140 Climbing Houston Center
10:06AM 30.9122 -95.8531 335° Northwest 392 451 19,200 1,140 Climbing Houston Center
10:07AM 31.0117 -95.9067 335° Northwest 392 451 20,400 1,320 Climbing Houston Center
10:08AM 31.1125 -95.9614 335° Northwest 395 455 22,000 1,440 Climbing Houston Center
10:09AM 31.2136 -96.0031 341° North 385 443 23,400 1,260 Climbing Houston Center
10:10AM 31.3161 -96.0406 343° North 384 442 24,700 1,260 Climbing Houston Center
10:11AM 31.4172 -96.0808 341° North 383 441 26,100 1,320 Climbing Houston Center
10:12AM 31.5183 -96.1194 342° North 382 440 27,500 1,560 Climbing Houston Center
10:13AM 31.6353 -96.1658 341° North 377 434 29,400 1,500 Climbing Houston Center
10:14AM 31.6856 -96.1878 340° North 374 430 30,000 1,320 Climbing Fort Worth Center
10:15AM 31.7839 -96.2256 342° North 368 423 31,600 1,680 Climbing Fort Worth Center
10:16AM 31.8844 -96.2658 341° North 357 411 33,400 1,500 Climbing Fort Worth Center
10:17AM 31.9789 -96.3014 342° North 351 404 34,600 1,080 Climbing Fort Worth Center
10:18AM 32.0731 -96.3394 341° North 351 404 35,600 660 Climbing Fort Worth Center
10:19AM 32.1694 -96.3803 340° North 351 404 36,000 180 Climbing Fort Worth Center
10:20AM 32.2719 -96.4183 343° North 363 418 36,000  Level Fort Worth Center
10:21AM 32.3831 -96.4589 343° North 394 453 36,000  Level Fort Worth Center
10:22AM 32.4981 -96.5019 342° North 420 483 36,000  Level Fort Worth Center
10:23AM 32.6153 -96.5453 343° North 431 496 36,000  Level Fort Worth Center
10:24AM 32.7325 -96.5911 342° North 431 496 36,000  Level Fort Worth Center
10:25AM 32.8478 -96.6344 342° North 436 502 36,000  Level Fort Worth Center
10:26AM 32.9544 -96.6756 342° North 442 509 36,000  Level Fort Worth Center
10:27AM 33.0717 -96.7194 343° North 442 509 36,000  Level Fort Worth Center
10:28AM 33.1908 -96.7656 342° North 442 509 36,000  Level Fort Worth Center
10:29AM 33.3078 -96.8119 342° North 442 509 36,000  Level Fort Worth Center
10:30AM 33.4250 -96.8583 342° North 442 509 36,000  Level Fort Worth Center
10:31AM 33.5419 -96.9025 343° North 442 509 36,000  Level Fort Worth Center
10:32AM 33.6569 -96.9492 341° North 442 509 36,000  Level Fort Worth Center
10:33AM 33.7719 -96.9936 342° North 442 509 36,000  Level Fort Worth Center
10:34AM 33.8869 -97.0406 341° North 437 503 36,000  Level Fort Worth Center
10:35AM 34.0061 -97.0853 343° North 437 503 36,000  Level Fort Worth Center
10:36AM 34.1147 -97.1350 339° North 432 497 36,000  Level Fort Worth Center
10:37AM 34.2275 -97.1925 337° Northwest 427 491 36,000  Level Fort Worth Center
10:38AM 34.3153 -97.3003 315° West 433 498 36,000  Level Fort Worth Center
10:39AM 34.4050 -97.4086 315° West 445 512 36,000  Level Fort Worth Center
10:40AM 34.4906 -97.5194 313° West 445 512 36,000  Level Fort Worth Center
10:41AM 34.5781 -97.6278 314° West 445 512 36,000  Level Fort Worth Center
10:42AM 34.6675 -97.7367 315° West 445 512 36,000  Level Fort Worth Center
10:43AM 34.7547 -97.8483 314° West 450 518 36,000  Level Fort Worth Center
10:44AM 34.8439 -97.9550 316° Northwest 450 518 36,000  Level Fort Worth Center
10:45AM 34.9311 -98.0644 314° West 445 512 36,000  Level Fort Worth Center
10:46AM 35.0181 -98.1742 314° West 450 518 36,000  Level Fort Worth Center
10:47AM 35.1050 -98.2814 315° West 450 518 36,000  Level Fort Worth Center
10:48AM 35.1917 -98.3942 313° West 450 518 36,000  Level Fort Worth Center
10:49AM 35.2783 -98.4994 315° West 450 518 36,000  Level Fort Worth Center
10:50AM 35.3650 -98.6075 315° West 445 512 36,000  Level Fort Worth Center
10:51AM 35.4514 -98.7208 313° West 445 512 36,000  Level Fort Worth Center
10:52AM 35.5378 -98.8292 314° West 450 518 36,000  Level Fort Worth Center
10:53AM 35.6242 -98.9406 314° West 445 512 36,000  Level Fort Worth Center
10:54AM 35.7600 -99.1169 314° West 444 511 36,000  Level Kansas City Center
10:55AM 35.8456 -99.2272 314° West 445 512 36,000  Level Kansas City Center
10:56AM 35.9289 -99.3381 313° West 443 510 36,000  Level Kansas City Center
10:57AM 36.0178 -99.4517 314° West 439 505 36,000  Level Kansas City Center
10:58AM 36.1028 -99.5622 314° West 438 504 36,000  Level Kansas City Center
10:59AM 36.1875 -99.6719 314° West 439 505 36,000  Level Kansas City Center
11:00AM 36.2708 -99.7825 313° West 437 503 36,000  Level Kansas City Center
11:01AM 36.3553 -99.8939 313° West 440 506 36,000  Level Kansas City Center
11:02AM 36.4453 -100.0375 308° West 439 505 36,000  Level Kansas City Center
11:03AM 36.5231 -100.1547 310° West 439 505 36,000  Level Kansas City Center
11:04AM 36.5989 -100.2744 308° West 439 505 36,000  Level Kansas City Center
11:05AM 36.6753 -100.3931 309° West 438 504 36,000  Level Kansas City Center
11:07AM 36.7519 -100.5111 309° West 439 505 36,000  Level Kansas City Center
11:08AM 36.8364 -100.6444 308° West 439 505 36,000  Level Kansas City Center
11:09AM 36.9089 -100.7578 309° West 437 503 36,000  Level Kansas City Center
11:10AM 36.9939 -100.8911 309° West 437 503 36,000  Level Kansas City Center
11:11AM 37.0667 -101.0042 309° West 435 501 36,000  Level Kansas City Center
11:12AM 37.1553 -101.1339 311° West 436 502 36,000  Level Kansas City Center
11:13AM 37.2319 -101.2467 311° West 440 506 36,000  Level Kansas City Center
11:14AM 37.3086 -101.3578 311° West 438 504 36,000  Level Kansas City Center
11:15AM 37.3972 -101.4894 310° West 439 505 36,000  Level Kansas City Center
11:16AM 37.4739 -101.6008 311° West 439 505 36,000  Level Kansas City Center
11:17AM 37.5625 -101.7325 310° West 439 505 36,000  Level Kansas City Center
11:18AM 37.6311 -101.8497 306° West 436 502 36,000  Level Kansas City Center
11:19AM 37.6664 -102.0142 285° West 434 499 36,000  Level Kansas City Center
11:20AM 37.6911 -102.1564 282° West 434 499 36,000  Level Kansas City Center
11:21AM 37.7200 -102.3211 283° West 432 497 36,000  Level Kansas City Center
11:22AM 37.7447 -102.4650 282° West 436 502 36,000  Level Kansas City Center
11:23AM 37.7703 -102.6061 283° West 432 497 36,000  Level Kansas City Center
11:24AM 37.7978 -102.7714 282° West 431 496 36,000  Level Kansas City Center
11:25AM 37.8231 -102.9142 283° West 433 498 36,000  Level Kansas City Center
11:27AM 37.8636 -103.1442 283° West 432 497 36,000  Level Denver Center
11:28AM 37.8858 -103.2847 281° West 428 493 36,000  Level Denver Center
11:29AM 37.9147 -103.4497 283° West 432 497 36,000  Level Denver Center
11:30AM 37.9375 -103.5908 282° West 430 495 36,000  Level Denver Center
11:31AM 37.9647 -103.7539 282° West 427 491 36,000  Level Denver Center
11:32AM 37.9881 -103.8956 282° West 430 495 36,000  Level Denver Center
11:33AM 38.0144 -104.0606 282° West 432 497 36,000  Level Denver Center
11:34AM 38.0361 -104.2017 281° West 430 495 36,000  Level Denver Center
11:35AM 38.0628 -104.3675 282° West 433 498 36,000  Level Denver Center
11:36AM 38.0850 -104.5100 281° West 432 497 36,000  Level Denver Center
11:37AM 38.1108 -104.6767 281° West 432 497 36,000  Level Denver Center
11:38AM 38.1336 -104.8203 281° West 434 499 36,000  Level Denver Center
11:39AM 38.1594 -104.9875 281° West 434 499 36,000  Level Denver Center
11:40AM 38.1767 -105.1061 281° West 430 495 36,000  Level Denver Center
11:41AM 38.2047 -105.2956 281° West 428 493 36,000  Level Denver Center
11:42AM 38.2261 -105.4378 281° West 428 493 36,000  Level Denver Center
11:43AM 38.2517 -105.6022 281° West 426 490 36,000  Level Denver Center
11:44AM 38.2714 -105.7447 280° West 427 491 36,000  Level Denver Center
11:45AM 38.2958 -105.9094 281° West 424 488 36,000  Level Denver Center
11:46AM 38.3153 -106.0511 280° West 425 489 36,000  Level Denver Center
11:47AM 38.3386 -106.2142 280° West 424 488 36,000 -480 Level Denver Center
11:49AM 38.3586 -106.3622 280° West 423 487 35,000 -1,320 Descending Denver Center
11:50AM 38.3836 -106.5350 281° West 413 475 33,100 -1,500 Descending Denver Center
11:51AM 38.4033 -106.6831 280° West 423 487 31,900 -1,440 Descending Denver Center
11:52AM 38.4244 -106.8367 280° West 436 502 30,200 -1,740 Descending Denver Center
11:53AM 38.4450 -106.9883 280° West 433 498 28,400 -1,740 Descending Denver Center
11:54AM 38.4950 -107.1331 294° West 451 519 26,700 -1,800 Descending Denver Center
11:55AM 38.5567 -107.2914 297° West 441 507 24,700 -1,920 Descending Denver Center
11:56AM 38.5989 -107.4508 289° West 424 488 22,700 -2,280 Descending Denver Center
11:57AM 38.6308 -107.5853 287° West 416 479 20,000 -2,820 Descending Denver Center
11:58AM 38.6686 -107.7375 288° West 404 465 16,900 -2,400 Descending Denver Center
11:59AM 38.7219 -107.8525 301° West 392 451 15,100 -960 Descending Denver Center
12:00PM 38.7933 -107.9714 308° West 380 437 15,000 -60 Descending Denver Center
12:01PM 38.8572 -108.0781 308° West 380 437 15,000  Level Denver Center
12:02PM 38.9156 -108.1772 307° West 373 429 15,000 -60 Level Denver Center
12:03PM 38.9736 -108.2744 308° West 310 357 14,900 -1,020 Descending Denver Center
12:04PM 39.0372 -108.3442 320° Northwest 284 327 13,000 -2,520 Descending Denver Center
12:05PM 39.0956 -108.4161 316° Northwest 280 322 9,800 -2,460 Descending Denver Center
12:06PM 39.1411 -108.4869 310° West 262 302 8,000 -1,800 Descending Denver Center